createdAt,value
2018-03-15T00:01:19.445Z,25.33
2018-03-15T00:03:49.057Z,22.33
2018-03-15T00:06:17.334Z,24.43
2018-03-15T00:08:46.126Z,24.00
2018-03-15T00:11:14.650Z,25.00
2018-03-15T00:13:43.113Z,24.10
2018-03-15T00:16:11.581Z,23.40
2018-03-15T00:18:40.565Z,25.23
2018-03-15T00:21:08.972Z,25.87
2018-03-15T00:23:37.319Z,23.27
2018-03-15T00:26:05.505Z,23.70
2018-03-15T00:28:33.876Z,22.00
2018-03-15T00:31:02.098Z,23.43
2018-03-15T00:33:30.531Z,22.33
2018-03-15T00:35:58.781Z,21.97
2018-03-15T00:38:27.784Z,24.87
2018-03-15T00:40:55.989Z,26.50
2018-03-15T00:43:24.356Z,25.80
2018-03-15T00:45:52.654Z,25.30
2018-03-15T00:48:21.224Z,25.00
2018-03-15T00:50:49.600Z,23.77
2018-03-15T00:53:17.887Z,24.43
2018-03-15T00:55:46.128Z,26.50
2018-03-15T00:58:14.409Z,23.73
2018-03-15T01:00:43.428Z,23.70
2018-03-15T01:03:11.707Z,22.63
2018-03-15T01:05:40.898Z,24.70
2018-03-15T01:08:09.272Z,23.70
2018-03-15T01:10:37.520Z,22.60
2018-03-15T01:13:05.757Z,21.00
2018-03-15T01:15:34.012Z,21.90
2018-03-15T01:18:02.261Z,22.10
2018-03-15T01:20:31.360Z,23.07
2018-03-15T01:23:00.397Z,21.97
2018-03-15T01:25:28.654Z,28.20
2018-03-15T01:27:56.893Z,25.07
2018-03-15T01:30:25.167Z,21.83
2018-03-15T01:32:53.420Z,21.70
2018-03-15T01:35:21.637Z,21.37
2018-03-15T01:37:50.649Z,21.27
2018-03-15T01:40:18.988Z,22.37
2018-03-15T01:42:47.244Z,26.67
2018-03-15T01:45:15.624Z,23.73
2018-03-15T01:47:43.904Z,25.80
2018-03-15T01:50:12.226Z,21.30
2018-03-15T01:52:40.556Z,24.60
2018-03-15T01:55:08.768Z,21.63
2018-03-15T01:57:37.777Z,26.47
2018-03-15T02:00:06.040Z,20.57
2018-03-15T02:02:35.062Z,21.47
2018-03-15T02:05:03.372Z,59.00
2018-03-15T02:07:31.585Z,28.00
2018-03-15T02:10:00.764Z,22.50
2018-03-15T02:12:29.777Z,38.13
2018-03-15T02:14:58.878Z,22.63
2018-03-15T02:17:27.953Z,23.27
2018-03-15T02:19:56.209Z,25.37
2018-03-15T02:22:24.583Z,28.00
2018-03-15T02:24:52.777Z,24.43
2018-03-15T02:27:21.256Z,25.90
2018-03-15T02:29:49.479Z,23.43
2018-03-15T02:32:17.727Z,24.60
2018-03-15T02:34:45.984Z,33.07
2018-03-15T02:37:14.262Z,22.30
2018-03-15T02:39:42.598Z,22.10
2018-03-15T02:42:10.832Z,21.73
2018-03-15T02:44:39.842Z,30.37
2018-03-15T02:47:08.812Z,23.30
2018-03-15T02:49:37.058Z,43.73
2018-03-15T02:52:05.334Z,55.73
2018-03-15T02:54:33.557Z,59.47
2018-03-15T02:57:02.605Z,40.93
2018-03-15T02:59:31.150Z,35.63
2018-03-15T03:01:59.406Z,72.03
2018-03-15T03:04:28.414Z,38.07
2018-03-15T03:06:59.960Z,44.17
2018-03-15T03:09:29.029Z,22.80
2018-03-15T03:11:57.309Z,30.13
2018-03-15T03:14:25.609Z,27.73
2018-03-15T03:16:54.602Z,37.43
2018-03-15T03:19:23.620Z,78.20
2018-03-15T03:21:53.097Z,34.07
2018-03-15T03:24:22.183Z,21.53
2018-03-15T03:26:50.418Z,64.97
2018-03-15T03:29:18.876Z,21.47
2018-03-15T03:31:47.081Z,22.10
2018-03-15T03:34:15.633Z,26.20
2018-03-15T03:36:43.945Z,21.70
2018-03-15T03:39:12.184Z,39.07
2018-03-15T03:41:40.421Z,25.13
2018-03-15T03:44:09.489Z,23.30
2018-03-15T03:46:37.794Z,22.87
2018-03-15T03:49:06.134Z,24.33
2018-03-15T03:51:34.516Z,22.67
2018-03-15T03:54:02.722Z,24.43
2018-03-15T03:56:30.975Z,22.67
2018-03-15T03:58:59.272Z,26.93
2018-03-15T04:01:27.593Z,27.70
2018-03-15T04:03:55.865Z,26.87
2018-03-15T04:06:24.960Z,26.60
2018-03-15T04:08:53.296Z,24.23
2018-03-15T04:11:21.514Z,25.83
2018-03-15T04:13:49.830Z,22.30
2018-03-15T04:16:18.053Z,27.07
2018-03-15T04:18:47.103Z,26.97
2018-03-15T04:21:15.543Z,27.53
2018-03-15T04:23:43.781Z,23.97
2018-03-15T04:26:11.997Z,21.50
2018-03-15T04:28:41.733Z,22.80
2018-03-15T04:31:10.157Z,23.80
2018-03-15T04:33:38.462Z,25.30
2018-03-15T04:36:06.764Z,22.73
2018-03-15T04:38:35.034Z,24.33
2018-03-15T04:41:03.272Z,24.60
2018-03-15T04:43:32.286Z,24.13
2018-03-15T04:46:01.294Z,25.23
2018-03-15T04:48:29.808Z,24.87
2018-03-15T04:50:58.086Z,25.70
2018-03-15T04:53:26.314Z,27.73
2018-03-15T04:55:54.585Z,26.10
2018-03-15T04:58:22.836Z,24.20
2018-03-15T05:00:51.050Z,31.93
2018-03-15T05:03:19.370Z,30.67
2018-03-15T05:05:47.685Z,32.63
2018-03-15T05:08:16.773Z,31.63
2018-03-15T05:10:45.077Z,31.93
2018-03-15T05:13:14.112Z,28.90
2018-03-15T05:15:42.343Z,29.70
2018-03-15T05:18:10.694Z,26.87
2018-03-15T05:20:38.963Z,25.23
2018-03-15T05:23:07.200Z,30.43
2018-03-15T05:25:36.224Z,27.03
2018-03-15T05:28:04.484Z,35.63
2018-03-15T05:30:32.789Z,30.67
2018-03-15T05:33:01.007Z,31.63
2018-03-15T05:35:29.261Z,28.93
2018-03-15T05:37:58.264Z,32.23
2018-03-15T05:40:26.621Z,31.60
2018-03-15T05:42:55.838Z,31.13
2018-03-15T05:45:24.194Z,29.80
2018-03-15T05:47:53.203Z,29.87
2018-03-15T05:50:22.228Z,25.17
2018-03-15T05:52:51.280Z,23.17
2018-03-15T05:55:20.389Z,23.33
2018-03-15T05:57:49.503Z,23.50
2018-03-15T06:00:18.658Z,24.27
2018-03-15T06:02:46.894Z,26.23
2018-03-15T06:05:15.120Z,20.63
2018-03-15T06:07:44.110Z,23.30
2018-03-15T06:10:13.204Z,22.47
2018-03-15T06:12:43.548Z,23.20
2018-03-15T06:15:11.774Z,22.50
2018-03-15T06:17:39.980Z,22.93
2018-03-15T06:20:09.029Z,24.57
2018-03-15T06:22:37.340Z,23.40
2018-03-15T06:25:05.759Z,24.50
2018-03-15T06:27:34.285Z,25.07
2018-03-15T06:30:02.492Z,25.87
2018-03-15T06:32:31.604Z,24.10
2018-03-15T06:35:00.752Z,27.37
2018-03-15T06:37:28.985Z,27.63
2018-03-15T06:39:57.205Z,24.83
2018-03-15T06:42:25.537Z,26.50
2018-03-15T06:44:54.545Z,30.00
2018-03-15T06:47:22.880Z,31.33
2018-03-15T06:49:51.145Z,28.10
2018-03-15T06:52:19.408Z,32.93
2018-03-15T06:54:47.697Z,29.63
2018-03-15T06:57:16.010Z,30.30
2018-03-15T06:59:45.017Z,28.33
2018-03-15T07:02:14.047Z,27.90
2018-03-15T07:04:42.491Z,25.60
2018-03-15T07:07:10.706Z,24.40
2018-03-15T07:09:39.009Z,23.87
2018-03-15T07:12:07.304Z,24.13
2018-03-15T07:14:35.580Z,24.77
2018-03-15T07:17:04.605Z,25.53
2018-03-15T07:19:32.867Z,24.23
2018-03-15T07:22:01.929Z,27.73
2018-03-15T07:24:30.257Z,23.00
2018-03-15T07:26:58.573Z,24.37
2018-03-15T07:29:26.806Z,23.27
2018-03-15T07:31:55.080Z,23.87
2018-03-15T07:34:23.358Z,23.10
2018-03-15T07:36:51.702Z,21.80
2018-03-15T07:39:20.822Z,22.10
2018-03-15T07:41:49.252Z,20.23
2018-03-15T07:44:17.585Z,20.43
2018-03-15T07:46:45.943Z,21.00
2018-03-15T07:51:52.562Z,21.50
2018-03-15T07:54:20.797Z,20.87
2018-03-15T07:56:49.094Z,19.67
2018-03-15T07:59:17.575Z,21.70
2018-03-15T08:01:45.793Z,21.20
2018-03-15T08:04:14.005Z,21.73
2018-03-15T08:06:42.217Z,21.77
2018-03-15T08:09:10.453Z,21.97
2018-03-15T08:11:38.652Z,22.63
2018-03-15T08:14:06.865Z,22.17
2018-03-15T08:16:35.123Z,22.40
2018-03-15T08:19:03.357Z,22.70
2018-03-15T08:21:31.632Z,21.47
2018-03-15T08:24:00.623Z,21.47
2018-03-15T08:26:29.712Z,23.67
2018-03-15T08:28:58.917Z,21.87
2018-03-15T08:31:27.124Z,21.10
2018-03-15T08:33:55.338Z,22.67
2018-03-15T08:36:23.662Z,22.40
2018-03-15T08:42:22.865Z,21.73
2018-03-15T08:44:51.222Z,20.97
2018-03-15T08:47:19.428Z,20.63
2018-03-15T08:49:47.702Z,22.00
2018-03-15T08:52:15.935Z,21.10
2018-03-15T08:54:44.246Z,20.80
2018-03-15T08:57:12.573Z,19.93
2018-03-15T08:59:40.886Z,21.33
2018-03-15T09:02:09.123Z,20.67
2018-03-15T09:04:37.807Z,20.03
2018-03-15T09:07:05.713Z,21.67
2018-03-15T09:09:33.806Z,19.93
2018-03-15T09:12:02.090Z,20.30
2018-03-15T09:14:31.549Z,19.50
2018-03-15T09:17:01.789Z,20.43
2018-03-15T09:19:30.123Z,20.23
2018-03-15T09:21:58.381Z,20.00
2018-03-15T09:24:26.640Z,19.13
2018-03-15T09:26:54.894Z,19.67
2018-03-15T09:29:23.268Z,18.50
2018-03-15T09:31:51.505Z,18.17
2018-03-15T09:34:19.804Z,18.67
2018-03-15T09:36:48.222Z,17.70
2018-03-15T09:39:17.631Z,17.03
2018-03-15T09:41:52.113Z,18.17
2018-03-15T09:44:20.347Z,17.63
2018-03-15T09:46:48.632Z,16.97
2018-03-15T09:49:16.872Z,17.93
2018-03-15T09:51:45.880Z,17.60
2018-03-15T09:54:14.157Z,16.80
2018-03-15T09:56:42.408Z,16.97
2018-03-15T09:59:10.615Z,17.03
2018-03-15T10:01:38.864Z,17.13
2018-03-15T10:04:09.090Z,15.87
2018-03-15T10:06:38.085Z,16.87
2018-03-15T10:09:07.197Z,16.43
2018-03-15T10:11:35.440Z,16.40
2018-03-15T10:14:03.697Z,15.27
2018-03-15T10:16:31.933Z,15.67
2018-03-15T10:19:02.533Z,16.30
2018-03-15T10:21:31.521Z,15.23
2018-03-15T10:24:00.504Z,15.97
2018-03-15T10:26:28.776Z,15.63
2018-03-15T10:28:56.977Z,16.40
2018-03-15T10:31:25.242Z,15.20
2018-03-15T10:33:54.361Z,17.27
2018-03-15T10:36:22.649Z,16.80
2018-03-15T10:38:50.859Z,16.37
2018-03-15T10:41:19.108Z,17.53
2018-03-15T10:43:47.321Z,16.67
2018-03-15T10:46:15.525Z,17.57
2018-03-15T10:48:44.605Z,16.97
2018-03-15T10:51:13.585Z,17.30
2018-03-15T10:53:41.829Z,17.37
2018-03-15T10:56:10.117Z,17.17
2018-03-15T10:58:38.322Z,16.27
2018-03-15T11:01:06.567Z,16.97
2018-03-15T11:03:40.521Z,17.07
2018-03-15T11:06:10.521Z,18.30
2018-03-15T11:08:39.537Z,17.53
2018-03-15T11:11:08.609Z,18.93
2018-03-15T11:13:36.823Z,17.47
2018-03-15T11:16:05.072Z,19.90
2018-03-15T11:18:34.183Z,17.97
2018-03-15T11:21:02.394Z,18.70
2018-03-15T11:23:30.682Z,17.10
2018-03-15T11:25:58.920Z,16.77
2018-03-15T11:28:27.233Z,18.27
2018-03-15T11:30:55.444Z,18.70
2018-03-15T11:33:24.504Z,18.40
2018-03-15T11:35:52.779Z,19.40
2018-03-15T11:38:20.973Z,18.67
2018-03-15T11:40:49.223Z,17.80
2018-03-15T11:43:17.424Z,17.33
2018-03-15T11:45:45.626Z,16.67
2018-03-15T11:48:14.665Z,19.53
2018-03-15T11:50:42.906Z,20.07
2018-03-15T11:53:11.170Z,19.13
2018-03-15T11:55:39.420Z,18.33
2018-03-15T11:58:08.013Z,18.07
2018-03-15T12:00:36.414Z,19.23
2018-03-15T12:03:04.684Z,18.97
2018-03-15T12:05:33.737Z,17.67
2018-03-15T12:08:02.059Z,18.83
2018-03-15T12:10:31.851Z,18.23
2018-03-15T12:13:00.089Z,18.07
2018-03-15T12:15:28.476Z,18.33
2018-03-15T12:17:56.764Z,17.83
2018-03-15T12:20:25.072Z,16.43
2018-03-15T12:22:55.281Z,16.63
2018-03-15T12:25:23.666Z,14.00
2018-03-15T12:27:52.674Z,15.37
2018-03-15T12:30:21.664Z,14.67
2018-03-15T12:32:50.661Z,14.70
2018-03-15T12:35:19.697Z,13.60
2018-03-15T12:37:47.997Z,13.17
2018-03-15T12:40:16.297Z,13.97
2018-03-15T12:42:45.363Z,13.10
2018-03-15T12:45:13.587Z,13.87
2018-03-15T12:47:41.921Z,12.90
2018-03-15T12:50:10.236Z,14.73
2018-03-15T12:52:39.265Z,14.07
2018-03-15T12:55:07.541Z,14.00
2018-03-15T12:57:35.762Z,13.53
2018-03-15T13:00:03.991Z,14.60
2018-03-15T13:02:32.574Z,13.77
2018-03-15T13:05:00.776Z,14.20
2018-03-15T13:07:29.045Z,13.30
2018-03-15T13:09:57.297Z,14.33
2018-03-15T13:12:25.546Z,13.90
2018-03-15T13:14:54.571Z,15.17
2018-03-15T13:17:22.871Z,14.50
2018-03-15T13:19:51.207Z,14.63
2018-03-15T13:22:19.423Z,15.30
2018-03-15T13:24:47.777Z,15.40
2018-03-15T13:27:16.055Z,15.07
2018-03-15T13:29:44.283Z,15.93
2018-03-15T13:32:13.322Z,17.10
2018-03-15T13:34:41.638Z,16.57
2018-03-15T13:37:09.827Z,17.20
2018-03-15T13:39:38.980Z,15.77
2018-03-15T13:42:07.647Z,16.30
2018-03-15T13:44:35.989Z,16.87
2018-03-15T13:47:04.393Z,17.00
2018-03-15T13:49:32.733Z,16.03
2018-03-15T13:52:01.887Z,16.67
2018-03-15T13:54:30.204Z,15.77
2018-03-15T13:56:58.430Z,16.30
2018-03-15T13:59:26.915Z,15.13
2018-03-15T14:01:55.200Z,15.57
2018-03-15T14:04:23.428Z,15.67
2018-03-15T14:06:51.753Z,17.07
2018-03-15T14:09:20.035Z,15.80
2018-03-15T14:11:48.321Z,16.23
2018-03-15T14:14:16.527Z,16.23
2018-03-15T14:16:44.774Z,17.17
2018-03-15T14:19:13.079Z,16.87
2018-03-15T14:21:41.349Z,16.80
2018-03-15T14:24:09.605Z,16.23
2018-03-15T14:26:38.275Z,16.73
2018-03-15T14:29:06.845Z,16.33
2018-03-15T14:31:35.304Z,17.23
2018-03-15T14:34:04.425Z,17.80
2018-03-15T14:36:33.552Z,17.80
2018-03-15T14:39:01.810Z,17.37
2018-03-15T14:41:30.020Z,17.87
2018-03-15T14:43:59.358Z,18.93
2018-03-15T14:46:27.772Z,17.43
2018-03-15T14:48:56.026Z,17.77
2018-03-15T14:51:24.282Z,17.43
2018-03-15T14:53:53.364Z,17.50
2018-03-15T14:56:21.673Z,16.30
2018-03-15T14:58:50.040Z,17.27
2018-03-15T15:01:18.269Z,17.13
2018-03-15T15:06:14.866Z,16.90
2018-03-15T15:08:43.093Z,17.10
2018-03-15T15:11:11.490Z,16.17
2018-03-15T15:13:39.797Z,16.70
2018-03-15T15:16:08.091Z,15.93
2018-03-15T15:18:36.469Z,16.13
2018-03-15T15:21:04.732Z,17.50
2018-03-15T15:23:33.176Z,16.37
2018-03-15T15:26:01.419Z,16.33
2018-03-15T15:28:29.925Z,17.57
2018-03-15T15:30:58.245Z,17.27
2018-03-15T15:33:26.870Z,17.33
2018-03-15T15:35:55.107Z,16.40
2018-03-15T15:38:24.125Z,16.97
2018-03-15T15:40:52.408Z,16.63
2018-03-15T15:43:20.734Z,16.90
2018-03-15T15:45:51.042Z,16.70
2018-03-15T15:48:19.312Z,16.70
2018-03-15T15:50:47.640Z,16.50
2018-03-15T15:53:15.884Z,16.33
2018-03-15T15:55:44.230Z,16.57
2018-03-15T15:58:12.469Z,17.87
2018-03-15T16:00:41.303Z,18.20
2018-03-15T16:03:09.697Z,16.60
2018-03-15T16:05:37.950Z,17.73
2018-03-15T16:08:06.229Z,17.63
2018-03-15T16:10:34.485Z,17.00
2018-03-15T16:13:02.802Z,18.00
2018-03-15T16:15:31.060Z,17.00
2018-03-15T16:17:59.357Z,17.53
2018-03-15T16:20:27.594Z,17.80
2018-03-15T16:22:55.885Z,18.27
2018-03-15T16:25:24.121Z,17.37
2018-03-15T16:27:52.339Z,17.10
2018-03-15T16:30:20.553Z,18.70
2018-03-15T16:32:49.912Z,17.50
2018-03-15T16:35:18.146Z,18.07
2018-03-15T16:37:46.377Z,18.33
2018-03-15T16:40:14.601Z,18.53
2018-03-15T16:42:42.917Z,18.33
2018-03-15T16:45:11.207Z,17.80
2018-03-15T16:47:39.552Z,19.33
2018-03-15T16:50:07.806Z,19.43
2018-03-15T16:52:36.924Z,18.83
2018-03-15T16:55:05.127Z,18.73
2018-03-15T16:57:33.535Z,18.20
2018-03-15T17:00:02.627Z,18.60
2018-03-15T17:02:30.896Z,19.77
2018-03-15T17:04:59.153Z,19.20
2018-03-15T17:07:27.576Z,16.90
2018-03-15T17:09:56.627Z,17.73
2018-03-15T17:12:24.866Z,17.77
2018-03-15T17:14:53.864Z,17.40
2018-03-15T17:17:22.840Z,18.83
2018-03-15T17:19:52.308Z,18.93
2018-03-15T17:22:20.511Z,19.83
2018-03-15T17:24:49.602Z,18.57
2018-03-15T17:27:17.766Z,18.50
2018-03-15T17:29:46.083Z,19.37
2018-03-15T17:32:17.369Z,19.20
2018-03-15T17:34:45.896Z,18.40
2018-03-15T17:37:15.137Z,19.40
2018-03-15T17:39:43.572Z,17.87
2018-03-15T17:42:12.798Z,20.10
2018-03-15T17:44:41.176Z,19.37
2018-03-15T17:47:10.144Z,19.37
2018-03-15T17:49:38.466Z,17.87
2018-03-15T17:54:33.767Z,18.27
2018-03-15T17:57:02.487Z,18.67
2018-03-15T17:59:30.890Z,19.67
2018-03-15T18:01:59.321Z,18.40
2018-03-15T18:04:28.312Z,17.10
2018-03-15T18:06:56.553Z,18.07
2018-03-15T18:09:25.593Z,18.83
2018-03-15T18:11:53.779Z,18.27
2018-03-15T18:14:22.037Z,18.20
2018-03-15T18:16:50.284Z,16.23
2018-03-15T18:19:18.542Z,17.23
2018-03-15T18:21:47.651Z,17.83
2018-03-15T18:24:16.653Z,17.57
2018-03-15T18:26:44.924Z,18.67
2018-03-15T18:29:13.560Z,17.57
2018-03-15T18:31:42.095Z,18.23
2018-03-15T18:34:10.415Z,16.83
2018-03-15T18:36:38.839Z,18.37
2018-03-15T18:39:07.613Z,18.80
2018-03-15T18:41:35.882Z,18.43
2018-03-15T18:44:04.486Z,17.47
2018-03-15T18:46:33.500Z,18.73
2018-03-15T18:49:01.858Z,18.03
2018-03-15T18:51:30.060Z,17.67
2018-03-15T18:53:59.647Z,18.40
2018-03-15T18:56:28.016Z,18.60
2018-03-15T18:58:56.336Z,18.83
2018-03-15T19:01:24.593Z,19.27
2018-03-15T19:03:54.105Z,18.17
2018-03-15T19:06:22.395Z,19.00
2018-03-15T19:08:50.710Z,19.27
2018-03-15T19:11:19.013Z,19.77
2018-03-15T19:13:47.680Z,19.77
2018-03-15T19:16:16.686Z,20.30
2018-03-15T19:18:45.460Z,19.70
2018-03-15T19:21:14.616Z,19.53
2018-03-15T19:23:43.465Z,20.00
2018-03-15T19:26:11.809Z,19.47
2018-03-15T19:28:40.024Z,19.30
2018-03-15T19:31:08.261Z,19.70
2018-03-15T19:33:36.955Z,19.33
2018-03-15T19:36:05.385Z,20.63
2018-03-15T19:38:34.673Z,19.83
2018-03-15T19:41:02.924Z,19.90
2018-03-15T19:43:31.255Z,20.60
2018-03-15T19:46:00.302Z,20.17
2018-03-15T19:48:29.317Z,19.87
2018-03-15T19:50:58.308Z,20.43
2018-03-15T19:53:27.548Z,21.27
2018-03-15T19:55:55.762Z,20.47
2018-03-15T19:58:24.078Z,20.60
2018-03-15T20:00:53.580Z,21.50
2018-03-15T20:03:21.764Z,21.97
2018-03-15T20:05:50.045Z,19.90
2018-03-15T20:08:18.404Z,20.53
2018-03-15T20:10:47.231Z,19.67
2018-03-15T20:13:15.965Z,21.07
2018-03-15T20:15:49.039Z,19.57
2018-03-15T20:18:17.568Z,20.23
2018-03-15T20:20:48.833Z,20.17
2018-03-15T20:23:25.413Z,19.37
2018-03-15T20:25:54.292Z,20.03
2018-03-15T20:28:28.288Z,20.00
2018-03-15T20:30:56.632Z,20.73
2018-03-15T20:33:30.603Z,19.63
2018-03-15T20:35:58.981Z,20.37
2018-03-15T20:38:27.274Z,19.97
2018-03-15T20:41:01.185Z,20.03
2018-03-15T20:43:29.712Z,20.87
2018-03-15T20:46:03.747Z,19.87
2018-03-15T20:48:37.742Z,20.33
2018-03-15T20:51:06.093Z,19.47
2018-03-15T20:53:35.151Z,20.47
2018-03-15T20:56:04.214Z,20.57
2018-03-15T20:58:33.619Z,20.53
2018-03-15T21:01:02.153Z,19.93
2018-03-15T21:03:30.852Z,21.17
2018-03-15T21:06:00.172Z,20.73
2018-03-15T21:08:28.550Z,19.73
2018-03-15T21:10:58.030Z,19.27
2018-03-15T21:13:27.252Z,20.00
2018-03-15T21:15:56.520Z,19.10
2018-03-15T21:18:25.653Z,19.73
2018-03-15T21:20:53.914Z,19.13
2018-03-15T21:23:22.221Z,19.27
2018-03-15T21:25:50.520Z,18.83
2018-03-15T21:28:19.166Z,19.37
2018-03-15T21:30:47.693Z,19.17
2018-03-15T21:33:15.915Z,18.07
2018-03-15T21:35:44.169Z,18.63
2018-03-15T21:38:12.483Z,18.40
2018-03-15T21:40:40.741Z,18.60
2018-03-15T21:43:08.996Z,19.20
2018-03-15T21:45:37.274Z,19.40
2018-03-15T21:48:05.597Z,18.93
2018-03-15T21:50:34.119Z,18.97
2018-03-15T21:53:02.308Z,18.53
2018-03-15T21:55:30.597Z,17.33
2018-03-15T21:57:59.007Z,18.17
2018-03-15T22:00:27.246Z,18.43
2018-03-15T22:02:55.477Z,18.40
2018-03-15T22:05:24.615Z,18.50
2018-03-15T22:07:53.448Z,19.37
2018-03-15T22:10:22.437Z,19.53
2018-03-15T22:12:50.744Z,19.07
2018-03-15T22:15:19.081Z,18.60
2018-03-15T22:17:47.280Z,18.30
2018-03-15T22:20:16.324Z,18.37
2018-03-15T22:22:44.592Z,19.90
2018-03-15T22:25:12.971Z,17.87
2018-03-15T22:27:41.257Z,19.13
2018-03-15T22:30:09.551Z,18.40
2018-03-15T22:32:37.749Z,18.30
2018-03-15T22:35:05.990Z,18.57
2018-03-15T22:37:34.241Z,18.00
2018-03-15T22:40:03.229Z,18.60
2018-03-15T22:42:31.500Z,18.23
2018-03-15T22:45:00.483Z,17.90
2018-03-15T22:47:29.436Z,18.40
2018-03-15T22:49:57.776Z,18.47
2018-03-15T22:52:26.067Z,18.60
2018-03-15T22:54:54.260Z,18.30
2018-03-15T22:57:22.592Z,18.00
2018-03-15T22:59:50.914Z,17.97
2018-03-15T23:02:19.120Z,17.83
2018-03-15T23:04:48.177Z,17.53
2018-03-15T23:07:16.383Z,17.13
2018-03-15T23:09:44.929Z,18.40
2018-03-15T23:12:13.222Z,18.07
2018-03-15T23:14:41.445Z,17.00
2018-03-15T23:17:09.648Z,17.90
2018-03-15T23:19:37.895Z,17.27
2018-03-15T23:22:06.092Z,17.37
2018-03-15T23:24:34.290Z,18.73
2018-03-15T23:27:02.558Z,17.77
2018-03-15T23:29:30.832Z,19.17
2018-03-15T23:31:59.086Z,17.67
2018-03-15T23:34:27.394Z,18.10
2018-03-15T23:36:55.641Z,18.80
2018-03-15T23:39:23.873Z,17.77
2018-03-15T23:41:52.879Z,19.07
2018-03-15T23:44:21.889Z,18.60
2018-03-15T23:46:50.083Z,18.63
2018-03-15T23:49:18.381Z,19.27
2018-03-15T23:51:46.583Z,19.50
2018-03-15T23:54:14.837Z,19.63
2018-03-15T23:56:43.118Z,20.00
2018-03-15T23:59:11.329Z,21.13
